createdAt,value
2018-06-21T00:02:00.115Z,11.97
2018-06-21T00:04:28.289Z,12.00
2018-06-21T00:06:56.142Z,12.70
2018-06-21T00:09:24.302Z,12.50
2018-06-21T00:11:52.394Z,12.43
2018-06-21T00:14:20.308Z,11.67
2018-06-21T00:16:48.390Z,13.27
2018-06-21T00:19:16.225Z,12.47
2018-06-21T00:21:44.335Z,13.00
2018-06-21T00:24:12.513Z,14.33
2018-06-21T00:26:40.613Z,13.53
2018-06-21T00:29:08.769Z,13.20
2018-06-21T00:31:36.833Z,13.00
2018-06-21T00:34:04.930Z,12.73
2018-06-21T00:36:32.842Z,12.90
2018-06-21T00:39:01.129Z,13.20
2018-06-21T00:41:29.227Z,14.03
2018-06-21T00:43:57.392Z,14.17
2018-06-21T00:46:26.426Z,14.70
2018-06-21T00:48:54.842Z,14.03
2018-06-21T00:51:22.937Z,15.00
2018-06-21T00:53:51.071Z,15.57
2018-06-21T00:56:20.061Z,16.00
2018-06-21T00:58:48.866Z,14.77
2018-06-21T01:01:18.756Z,15.27
2018-06-21T01:03:47.331Z,15.68
2018-06-21T01:06:15.834Z,15.93
2018-06-21T01:08:43.908Z,16.30
2018-06-21T01:11:11.936Z,18.42
2018-06-21T01:13:40.107Z,18.30
2018-06-21T01:16:08.130Z,16.90
2018-06-21T01:18:36.241Z,16.30
2018-06-21T01:21:05.039Z,15.83
2018-06-21T01:23:33.143Z,16.77
2018-06-21T01:26:01.226Z,16.43
2018-06-21T01:28:29.266Z,16.90
2018-06-21T01:30:57.303Z,15.72
2018-06-21T01:33:25.728Z,15.40
2018-06-21T01:35:53.662Z,16.27
2018-06-21T01:38:22.019Z,16.40
2018-06-21T01:40:49.981Z,20.20
2018-06-21T01:43:17.817Z,21.17
2018-06-21T01:45:45.918Z,18.15
2018-06-21T01:48:14.092Z,19.20
2018-06-21T01:50:42.035Z,19.57
2018-06-21T01:53:10.113Z,20.20
2018-06-21T01:55:38.208Z,20.57
2018-06-21T01:58:06.334Z,20.08
2018-06-21T02:00:34.382Z,19.42
2018-06-21T02:03:02.560Z,19.23
2018-06-21T02:05:30.707Z,18.05
2018-06-21T02:07:58.920Z,18.87
2018-06-21T02:10:27.032Z,18.37
2018-06-21T02:12:55.372Z,20.77
2018-06-21T02:15:23.462Z,19.32
2018-06-21T02:17:51.290Z,19.00
2018-06-21T02:20:19.650Z,19.55
2018-06-21T02:22:47.925Z,20.30
2018-06-21T02:25:16.102Z,18.55
2018-06-21T02:27:44.141Z,18.85
2018-06-21T02:30:13.347Z,20.50
2018-06-21T02:32:41.415Z,19.60
2018-06-21T02:35:09.524Z,18.67
2018-06-21T02:37:38.750Z,19.75
2018-06-21T02:40:06.801Z,19.87
2018-06-21T02:42:34.597Z,21.07
2018-06-21T02:45:02.512Z,19.35
2018-06-21T02:47:30.827Z,21.15
2018-06-21T02:49:58.738Z,19.80
2018-06-21T02:53:30.052Z,19.27
2018-06-21T02:55:58.204Z,17.95
2018-06-21T02:58:26.358Z,20.05
2018-06-21T03:00:54.476Z,19.40
2018-06-21T03:03:22.880Z,18.05
2018-06-21T03:05:50.940Z,20.10
2018-06-21T03:08:18.759Z,19.65
2018-06-21T03:10:47.054Z,19.87
2018-06-21T03:13:15.269Z,19.25
2018-06-21T03:15:43.416Z,18.57
2018-06-21T03:18:11.500Z,19.07
2018-06-21T03:20:39.330Z,19.37
2018-06-21T03:23:07.791Z,18.62
2018-06-21T03:25:35.929Z,17.50
2018-06-21T03:28:05.199Z,16.90
2018-06-21T03:30:33.030Z,18.10
2018-06-21T03:33:01.001Z,17.50
2018-06-21T03:35:29.135Z,18.25
2018-06-21T03:37:57.138Z,18.60
2018-06-21T03:40:26.268Z,19.95
2018-06-21T03:42:54.606Z,18.13
2018-06-21T03:45:22.522Z,16.85
2018-06-21T03:47:50.586Z,19.10
2018-06-21T03:50:19.715Z,17.43
2018-06-21T03:52:48.212Z,18.75
2018-06-21T03:55:16.282Z,18.77
2018-06-21T03:57:44.309Z,19.53
2018-06-21T04:00:12.439Z,18.73
2018-06-21T04:02:41.410Z,17.17
2018-06-21T04:05:09.502Z,18.80
2018-06-21T04:07:37.656Z,19.40
2018-06-21T04:10:05.569Z,18.97
2018-06-21T04:12:34.134Z,20.72
2018-06-21T04:15:01.958Z,19.80
2018-06-21T04:17:30.022Z,18.73
2018-06-21T04:19:58.101Z,19.00
2018-06-21T04:22:26.544Z,20.80
2018-06-21T04:24:54.400Z,19.63
2018-06-21T04:27:22.542Z,18.60
2018-06-21T04:29:50.594Z,19.20
2018-06-21T04:32:18.860Z,17.53
2018-06-21T04:34:47.060Z,17.27
2018-06-21T04:37:15.483Z,16.57
2018-06-21T04:39:43.739Z,16.40
2018-06-21T04:42:11.896Z,16.23
2018-06-21T04:44:40.286Z,17.53
2018-06-21T04:47:08.423Z,16.50
2018-06-21T04:49:36.257Z,15.53
2018-06-21T04:52:04.666Z,16.30
2018-06-21T04:54:32.802Z,17.83
2018-06-21T04:57:00.850Z,17.70
2018-06-21T04:59:28.971Z,15.20
2018-06-21T05:01:57.021Z,16.13
2018-06-21T05:04:25.179Z,15.90
2018-06-21T05:06:53.253Z,15.37
2018-06-21T05:09:21.402Z,16.20
2018-06-21T05:11:49.451Z,14.97
2018-06-21T05:14:17.503Z,16.03
2018-06-21T05:16:46.510Z,14.87
2018-06-21T05:19:14.290Z,15.80
2018-06-21T05:21:42.434Z,17.37
2018-06-21T05:24:10.563Z,16.80
2018-06-21T05:26:38.648Z,15.50
2018-06-21T05:29:06.444Z,16.90
2018-06-21T05:31:34.834Z,18.20
2018-06-21T05:34:02.974Z,17.20
2018-06-21T05:36:32.227Z,17.90
2018-06-21T05:39:00.370Z,17.57
2018-06-21T05:41:28.516Z,15.23
2018-06-21T05:43:56.548Z,16.10
2018-06-21T05:46:24.451Z,16.20
2018-06-21T05:48:52.798Z,17.40
2018-06-21T05:51:23.250Z,15.60
2018-06-21T05:53:51.431Z,16.50
2018-06-21T05:56:19.786Z,14.90
2018-06-21T05:58:47.917Z,15.80
2018-06-21T06:01:16.228Z,16.00
2018-06-21T06:03:44.293Z,17.00
2018-06-21T06:06:12.646Z,16.53
2018-06-21T06:08:41.073Z,16.10
2018-06-21T06:11:09.527Z,16.97
2018-06-21T06:15:03.285Z,17.43
2018-06-21T06:17:31.518Z,19.40
2018-06-21T06:20:00.406Z,17.83
2018-06-21T06:22:29.058Z,16.80
2018-06-21T06:24:57.190Z,17.20
2018-06-21T06:27:25.294Z,17.57
2018-06-21T06:29:53.422Z,16.10
2018-06-21T06:32:21.610Z,18.13
2018-06-21T06:34:49.783Z,16.30
2018-06-21T06:37:17.964Z,15.50
2018-06-21T06:39:46.107Z,16.53
2018-06-21T06:42:14.222Z,17.73
2018-06-21T06:44:42.706Z,17.20
2018-06-21T06:47:10.934Z,16.27
2018-06-21T06:49:39.055Z,15.63
2018-06-21T06:52:06.982Z,17.23
2018-06-21T06:54:34.832Z,17.93
2018-06-21T06:57:02.973Z,17.20
2018-06-21T06:59:30.780Z,15.40
2018-06-21T07:01:58.870Z,16.97
2018-06-21T07:04:27.152Z,16.50
2018-06-21T07:06:55.295Z,16.70
2018-06-21T07:09:23.405Z,15.97
2018-06-21T07:11:51.285Z,14.87
2018-06-21T07:14:19.166Z,16.50
2018-06-21T07:16:47.228Z,16.37
2018-06-21T07:19:15.287Z,15.70
2018-06-21T07:21:43.327Z,16.10
2018-06-21T07:24:11.407Z,14.63
2018-06-21T07:26:39.558Z,16.10
2018-06-21T07:29:08.216Z,14.43
2018-06-21T07:31:36.637Z,16.80
2018-06-21T07:34:05.194Z,15.03
2018-06-21T07:36:33.414Z,15.53
2018-06-21T07:39:02.722Z,14.70
2018-06-21T07:41:30.917Z,18.20
2018-06-21T07:43:58.941Z,14.70
2018-06-21T07:46:27.028Z,15.30
2018-06-21T07:48:54.906Z,20.90
2018-06-21T07:51:22.894Z,21.23
2018-06-21T07:53:50.776Z,26.50
2018-06-21T07:56:18.720Z,15.67
2018-06-21T07:58:46.914Z,17.17
2018-06-21T08:01:15.066Z,15.83
2018-06-21T08:03:43.523Z,18.53
2018-06-21T08:06:11.684Z,16.17
2018-06-21T08:08:39.580Z,12.83
2018-06-21T08:11:07.671Z,12.23
2018-06-21T08:13:36.227Z,11.90
2018-06-21T08:16:04.111Z,15.30
2018-06-21T08:18:32.325Z,14.80
2018-06-21T08:21:00.394Z,11.50
2018-06-21T08:23:28.862Z,13.80
2018-06-21T08:25:56.991Z,11.70
2018-06-21T08:28:25.040Z,11.93
2018-06-21T08:30:53.112Z,12.60
2018-06-21T08:33:21.371Z,12.37
2018-06-21T08:35:49.162Z,11.10
2018-06-21T08:38:17.014Z,11.50
2018-06-21T08:40:45.103Z,12.20
2018-06-21T08:43:13.385Z,11.10
2018-06-21T08:45:41.179Z,11.80
2018-06-21T08:48:09.254Z,11.13
2018-06-21T08:50:37.577Z,9.50
2018-06-21T08:53:05.843Z,8.80
2018-06-21T08:55:34.012Z,12.27
2018-06-21T08:58:01.894Z,10.20
2018-06-21T09:00:29.911Z,10.87
2018-06-21T09:02:59.479Z,8.50
2018-06-21T09:05:28.334Z,8.40
2018-06-21T09:07:56.391Z,8.20
2018-06-21T09:10:24.636Z,9.50
2018-06-21T09:12:53.193Z,8.77
2018-06-21T09:15:21.337Z,7.97
2018-06-21T09:17:51.577Z,8.13
2018-06-21T09:20:21.081Z,8.07
2018-06-21T09:22:49.167Z,8.73
2018-06-21T09:25:17.870Z,7.73
2018-06-21T09:27:46.072Z,8.80
2018-06-21T09:30:13.938Z,10.33
2018-06-21T09:32:41.802Z,9.40
2018-06-21T09:35:09.614Z,8.57
2018-06-21T09:37:43.635Z,9.97
2018-06-21T09:40:17.220Z,12.93
2018-06-21T09:42:50.582Z,9.70
2018-06-21T09:45:25.604Z,9.90
2018-06-21T09:47:59.262Z,7.63
2018-06-21T09:50:27.335Z,7.20
2018-06-21T09:52:55.426Z,7.40
2018-06-21T09:55:23.482Z,7.90
2018-06-21T09:57:51.450Z,7.30
2018-06-21T10:00:24.922Z,7.53
2018-06-21T10:02:53.073Z,7.30
2018-06-21T10:05:21.214Z,7.70
2018-06-21T10:07:49.534Z,8.00
2018-06-21T10:10:17.639Z,7.13
2018-06-21T10:12:45.595Z,8.47
2018-06-21T10:15:13.770Z,8.67
2018-06-21T10:17:41.852Z,9.30
2018-06-21T10:20:09.679Z,8.00
2018-06-21T10:22:37.686Z,7.73
2018-06-21T10:25:05.922Z,9.10
2018-06-21T10:27:34.013Z,9.43
2018-06-21T10:30:02.102Z,7.87
2018-06-21T10:32:30.603Z,8.83
2018-06-21T10:34:59.099Z,9.20
2018-06-21T10:37:27.179Z,8.77
2018-06-21T10:39:55.328Z,7.80
2018-06-21T10:42:23.521Z,7.50
2018-06-21T10:44:51.577Z,8.60
2018-06-21T10:47:19.375Z,9.27
2018-06-21T10:49:47.466Z,8.67
2018-06-21T10:52:15.369Z,8.67
2018-06-21T10:54:43.335Z,8.63
2018-06-21T10:57:11.453Z,7.80
2018-06-21T10:59:39.692Z,8.00
2018-06-21T11:02:08.386Z,7.97
2018-06-21T11:04:38.160Z,9.80
2018-06-21T11:07:06.558Z,9.23
2018-06-21T11:09:34.654Z,11.10
2018-06-21T11:12:02.489Z,10.37
2018-06-21T11:14:30.321Z,9.03
2018-06-21T11:16:58.789Z,11.60
2018-06-21T11:19:27.074Z,9.77
2018-06-21T11:21:54.917Z,9.83
2018-06-21T11:24:23.076Z,8.90
2018-06-21T11:26:50.914Z,8.30
2018-06-21T11:29:19.068Z,9.50
2018-06-21T11:31:47.456Z,9.13
2018-06-21T11:34:15.334Z,9.87
2018-06-21T11:36:43.582Z,9.70
2018-06-21T11:39:11.739Z,9.07
2018-06-21T11:41:39.602Z,10.10
2018-06-21T11:44:07.707Z,9.57
2018-06-21T11:46:36.617Z,10.50
2018-06-21T11:49:04.954Z,10.53
2018-06-21T11:51:33.122Z,10.40
2018-06-21T11:54:01.370Z,10.30
2018-06-21T11:56:29.408Z,11.63
2018-06-21T11:58:58.137Z,11.00
2018-06-21T12:01:26.287Z,13.03
2018-06-21T12:03:54.420Z,12.50
2018-06-21T12:06:22.511Z,12.47
2018-06-21T12:08:50.606Z,11.13
2018-06-21T12:11:20.552Z,13.17
2018-06-21T12:13:49.122Z,11.70
2018-06-21T12:16:17.057Z,9.70
2018-06-21T12:18:44.954Z,11.63
2018-06-21T12:21:13.015Z,9.60
2018-06-21T12:23:41.564Z,10.47
2018-06-21T12:26:09.446Z,15.50
2018-06-21T12:28:37.590Z,23.30
2018-06-21T12:31:05.666Z,14.23
2018-06-21T12:33:34.968Z,12.50
2018-06-21T12:36:03.134Z,12.50
2018-06-21T12:38:31.494Z,12.80
2018-06-21T12:40:59.526Z,10.57
2018-06-21T12:43:27.786Z,13.70
2018-06-21T12:45:55.844Z,11.90
2018-06-21T12:48:23.767Z,10.73
2018-06-21T12:50:51.626Z,10.60
2018-06-21T12:53:20.132Z,10.83
2018-06-21T12:55:48.609Z,11.63
2018-06-21T12:58:16.947Z,11.07
2018-06-21T13:00:45.270Z,11.00
2018-06-21T13:03:13.623Z,10.70
2018-06-21T13:05:42.150Z,10.10
2018-06-21T13:08:10.547Z,9.80
2018-06-21T13:10:50.204Z,10.50
2018-06-21T13:13:23.687Z,8.80
2018-06-21T13:15:51.779Z,9.60
2018-06-21T13:18:20.062Z,9.10
2018-06-21T13:20:47.875Z,9.57
2018-06-21T13:23:16.158Z,9.43
2018-06-21T13:25:44.419Z,10.17
2018-06-21T13:28:12.484Z,10.40
2018-06-21T13:30:40.702Z,10.07
2018-06-21T13:33:08.803Z,11.77
2018-06-21T13:35:37.069Z,10.40
2018-06-21T13:38:06.442Z,9.57
2018-06-21T13:40:34.668Z,10.33
2018-06-21T13:43:03.079Z,9.80
2018-06-21T13:45:31.150Z,10.70
2018-06-21T13:47:59.339Z,11.60
2018-06-21T13:50:27.610Z,10.37
2018-06-21T13:52:55.668Z,10.00
2018-06-21T13:55:24.019Z,10.87
2018-06-21T13:57:51.878Z,9.73
2018-06-21T14:00:20.275Z,9.10
2018-06-21T14:02:48.653Z,9.53
2018-06-21T14:05:16.517Z,9.70
2018-06-21T14:07:44.693Z,10.00
2018-06-21T14:10:12.718Z,8.80
2018-06-21T14:12:40.884Z,9.87
2018-06-21T14:15:09.633Z,9.30
2018-06-21T14:17:37.547Z,9.80
2018-06-21T14:20:05.447Z,9.10
2018-06-21T14:22:33.419Z,8.80
2018-06-21T14:25:01.323Z,8.33
2018-06-21T14:27:29.242Z,9.60
2018-06-21T14:29:57.496Z,11.90
2018-06-21T14:32:26.032Z,17.30
2018-06-21T14:34:54.143Z,11.10
2018-06-21T14:37:22.247Z,9.77
2018-06-21T14:39:50.072Z,9.80
2018-06-21T14:42:18.187Z,15.80
2018-06-21T14:44:46.302Z,11.33
2018-06-21T14:47:14.202Z,8.90
2018-06-21T14:49:42.406Z,8.50
2018-06-21T14:52:10.217Z,8.90
2018-06-21T14:54:38.344Z,9.53
2018-06-21T14:57:06.471Z,18.07
2018-06-21T14:59:34.474Z,13.60
2018-06-21T15:02:02.401Z,9.97
2018-06-21T15:04:30.474Z,11.20
2018-06-21T15:06:58.401Z,11.67
2018-06-21T15:09:26.948Z,10.20
2018-06-21T15:11:54.987Z,9.97
2018-06-21T15:14:23.205Z,9.40
2018-06-21T15:16:51.254Z,14.87
2018-06-21T15:19:19.635Z,16.47
2018-06-21T15:21:47.798Z,12.57
2018-06-21T15:24:15.621Z,9.80
2018-06-21T15:26:43.457Z,14.10
2018-06-21T15:29:11.739Z,15.90
2018-06-21T15:31:39.787Z,13.33
2018-06-21T15:34:07.629Z,12.00
2018-06-21T15:36:36.815Z,18.40
2018-06-21T15:39:10.226Z,17.67
2018-06-21T15:41:38.345Z,11.00
2018-06-21T15:44:06.512Z,11.80
2018-06-21T15:46:34.691Z,14.40
2018-06-21T15:49:02.834Z,12.80
2018-06-21T15:51:30.895Z,12.10
2018-06-21T15:53:58.970Z,15.97
2018-06-21T15:56:27.167Z,11.80
2018-06-21T15:58:55.010Z,17.23
2018-06-21T16:01:23.378Z,13.40
2018-06-21T16:03:52.752Z,18.03
2018-06-21T16:06:20.871Z,19.73
2018-06-21T16:08:49.307Z,19.00
2018-06-21T16:11:17.207Z,15.13
2018-06-21T16:13:45.304Z,14.67
2018-06-21T16:16:13.364Z,13.17
2018-06-21T16:18:41.213Z,14.80
2018-06-21T16:21:09.266Z,12.00
2018-06-21T16:23:37.196Z,13.37
2018-06-21T16:26:05.015Z,12.90
2018-06-21T16:28:32.934Z,21.10
2018-06-21T16:31:00.970Z,20.50
2018-06-21T16:33:29.193Z,15.73
2018-06-21T16:35:57.022Z,13.93
2018-06-21T16:38:25.082Z,35.63
2018-06-21T16:40:53.189Z,16.07
2018-06-21T16:43:21.268Z,30.37
2018-06-21T16:45:49.612Z,14.93
2018-06-21T16:48:17.499Z,24.70
2018-06-21T16:50:45.541Z,17.40
2018-06-21T16:53:13.651Z,10.57
2018-06-21T16:55:41.739Z,10.67
2018-06-21T16:58:10.169Z,10.97
2018-06-21T17:00:38.050Z,15.00
2018-06-21T17:03:06.138Z,11.47
2018-06-21T17:05:34.331Z,13.40
2018-06-21T17:08:03.066Z,20.17
2018-06-21T17:10:31.212Z,31.70
2018-06-21T17:12:59.631Z,12.23
2018-06-21T17:15:28.074Z,13.10
2018-06-21T17:17:56.593Z,13.80
2018-06-21T17:20:24.752Z,12.40
2018-06-21T17:22:52.549Z,11.07
2018-06-21T17:25:20.386Z,12.73
2018-06-21T17:27:48.710Z,10.90
2018-06-21T17:30:16.903Z,11.63
2018-06-21T17:32:44.970Z,9.97
2018-06-21T17:35:13.147Z,10.37
2018-06-21T17:37:41.665Z,10.90
2018-06-21T17:40:09.700Z,11.83
2018-06-21T17:42:37.762Z,12.30
2018-06-21T17:45:05.833Z,11.80
2018-06-21T17:47:33.940Z,11.33
2018-06-21T17:50:02.371Z,11.90
2018-06-21T17:52:30.462Z,12.13
2018-06-21T17:54:58.652Z,12.50
2018-06-21T17:57:26.731Z,13.07
2018-06-21T17:59:54.579Z,13.43
2018-06-21T18:02:22.401Z,13.50
2018-06-21T18:04:50.442Z,11.60
2018-06-21T18:07:18.513Z,12.80
2018-06-21T18:09:46.315Z,11.20
2018-06-21T18:12:14.510Z,10.97
2018-06-21T18:14:42.540Z,11.57
2018-06-21T18:17:10.381Z,11.20
2018-06-21T18:19:38.680Z,10.90
2018-06-21T18:22:06.727Z,11.33
2018-06-21T18:24:34.855Z,11.83
2018-06-21T18:27:03.310Z,12.93
2018-06-21T18:29:31.631Z,12.40
2018-06-21T18:31:59.501Z,14.77
2018-06-21T18:34:27.725Z,13.00
2018-06-21T18:36:55.793Z,14.47
2018-06-21T18:39:23.827Z,14.03
2018-06-21T18:41:51.895Z,16.43
2018-06-21T18:44:20.227Z,14.63
2018-06-21T18:46:48.466Z,14.30
2018-06-21T18:49:16.555Z,13.50
2018-06-21T18:51:44.739Z,12.80
2018-06-21T18:54:12.834Z,14.97
2018-06-21T18:56:41.086Z,12.00
2018-06-21T18:59:08.900Z,11.60
2018-06-21T19:01:37.164Z,11.63
2018-06-21T19:04:05.434Z,10.73
2018-06-21T19:06:38.871Z,12.07
2018-06-21T19:09:13.182Z,10.73
2018-06-21T19:11:46.870Z,11.23
2018-06-21T19:14:15.414Z,10.80
2018-06-21T19:16:43.519Z,11.00
2018-06-21T19:19:11.536Z,10.20
2018-06-21T19:21:39.916Z,11.20
2018-06-21T19:24:08.534Z,12.17
2018-06-21T19:26:36.590Z,11.00
2018-06-21T19:29:04.779Z,11.47
2018-06-21T19:31:33.382Z,12.20
2018-06-21T19:34:01.816Z,11.53
2018-06-21T19:36:29.662Z,11.40
2018-06-21T19:38:57.661Z,11.57
2018-06-21T19:41:25.674Z,12.93
2018-06-21T19:43:54.135Z,12.10
2018-06-21T19:46:22.237Z,11.20
2018-06-21T19:48:50.370Z,11.63
2018-06-21T19:51:18.567Z,12.00
2018-06-21T19:53:47.074Z,11.43
2018-06-21T19:56:14.946Z,11.57
2018-06-21T19:58:42.995Z,12.00
2018-06-21T20:01:11.027Z,12.47
2018-06-21T20:03:39.273Z,12.70
2018-06-21T20:06:07.344Z,13.93
2018-06-21T20:08:35.411Z,14.53
2018-06-21T20:11:09.926Z,15.50
2018-06-21T20:13:47.986Z,15.70
2018-06-21T20:16:16.322Z,13.53
2018-06-21T20:18:44.500Z,15.50
2018-06-21T20:21:18.620Z,15.93
2018-06-21T20:23:48.884Z,15.37
2018-06-21T20:26:17.597Z,14.60
2018-06-21T20:28:46.347Z,15.73
2018-06-21T20:31:15.521Z,15.40
2018-06-21T20:33:44.459Z,16.30
2018-06-21T20:36:14.102Z,17.70
2018-06-21T20:38:42.255Z,18.83
2018-06-21T20:41:11.057Z,19.33
2018-06-21T20:43:39.194Z,18.87
2018-06-21T20:46:07.547Z,19.03
2018-06-21T20:48:35.874Z,17.03
2018-06-21T20:51:03.970Z,17.87
2018-06-21T20:53:32.023Z,15.73
2018-06-21T20:56:00.083Z,16.17
2018-06-21T20:58:28.277Z,16.40
2018-06-21T21:00:56.470Z,17.30
2018-06-21T21:03:24.264Z,18.57
2018-06-21T21:05:52.343Z,19.53
2018-06-21T21:08:20.220Z,19.50
2018-06-21T21:11:51.245Z,19.77
2018-06-21T21:14:19.358Z,18.87
2018-06-21T21:16:47.503Z,19.40
2018-06-21T21:19:15.613Z,21.10
2018-06-21T21:21:43.768Z,20.30
2018-06-21T21:24:11.829Z,18.43
2018-06-21T21:26:39.711Z,19.37
2018-06-21T21:29:07.753Z,17.40
2018-06-21T21:31:35.962Z,18.63
2018-06-21T21:34:04.088Z,17.23
2018-06-21T21:36:31.925Z,18.00
2018-06-21T21:39:00.205Z,18.20
2018-06-21T21:41:28.266Z,18.10
2018-06-21T21:43:56.395Z,19.20
2018-06-21T21:46:24.432Z,18.47
2018-06-21T21:48:52.792Z,18.20
2018-06-21T21:51:20.926Z,17.47
2018-06-21T21:53:48.862Z,17.60
2018-06-21T21:56:17.282Z,16.57
2018-06-21T21:58:45.100Z,16.60
2018-06-21T22:01:13.186Z,16.03
2018-06-21T22:03:41.519Z,14.80
2018-06-21T22:06:09.318Z,16.30
2018-06-21T22:08:37.769Z,17.07
2018-06-21T22:11:06.171Z,16.97
